Terminal Aerodrome Forecast
Issued by NWS Huntsville, AL

Home | Current Version | Previous Version | Text Only | Print | Product List | Glossary On
Versions: 1 2 3 4 5 6 7 8 9 10 11 12 13 14 15 16 17 18 19 20 21 22 23 24 25 26 27 28
000
FTUS44 KHUN 270520
TAFMSL
TAF
KMSL 270520Z 2706/2806 18006KT P6SM FEW250
     FM271500 17006KT P6SM SCT040 BKN120 PROB30 2717/2720 5SM TSRA
      BKN040CB
     FM272000 19007KT P6SM VCTS BKN035CB
      TEMPO 2720/2724 5SM TSRA BKN035CB=

USA.gov is the U.S. government's official web portal to all federal, state and local government web resources and services.